createdAt,value
2023-02-12T00:01:59.095Z,33.80
2023-02-12T00:04:25.672Z,33.80
2023-02-12T00:06:52.442Z,33.70
2023-02-12T00:09:19.002Z,33.80
2023-02-12T00:11:45.610Z,33.70
2023-02-12T00:14:12.439Z,33.70
2023-02-12T00:16:38.983Z,33.70
2023-02-12T00:19:05.630Z,33.70
2023-02-12T00:21:32.309Z,33.70
2023-02-12T00:23:59.105Z,33.70
2023-02-12T00:26:25.701Z,33.70
2023-02-12T00:28:52.537Z,33.70
2023-02-12T00:31:22.325Z,33.70
2023-02-12T00:33:49.473Z,33.70
2023-02-12T00:36:21.174Z,33.70
2023-02-12T00:38:49.377Z,33.60
2023-02-12T00:41:16.000Z,33.70
2023-02-12T00:43:42.666Z,33.70
2023-02-12T00:46:09.351Z,33.70
2023-02-12T00:48:36.953Z,33.70
2023-02-12T00:51:04.303Z,33.70
2023-02-12T00:53:31.622Z,33.70
2023-02-12T00:55:58.573Z,33.70
2023-02-12T00:58:25.376Z,33.70
2023-02-12T01:00:52.327Z,33.70
2023-02-12T01:03:19.088Z,33.70
2023-02-12T01:05:45.707Z,33.70
2023-02-12T01:08:14.187Z,33.70
2023-02-12T01:10:41.194Z,33.70
2023-02-12T01:13:08.498Z,33.70
2023-02-12T01:15:35.183Z,33.70
2023-02-12T01:18:01.831Z,33.70
2023-02-12T01:20:28.564Z,33.70
2023-02-12T01:22:55.144Z,33.60
2023-02-12T01:25:21.729Z,33.60
2023-02-12T01:27:48.507Z,33.60
2023-02-12T01:30:15.808Z,33.70
2023-02-12T01:32:43.867Z,33.60
2023-02-12T01:35:10.601Z,33.60
2023-02-12T01:37:38.164Z,33.60
2023-02-12T01:40:05.857Z,33.60
2023-02-12T01:42:32.691Z,33.60
2023-02-12T01:45:14.624Z,33.60
2023-02-12T01:47:43.087Z,33.60
2023-02-12T01:50:13.437Z,33.70
2023-02-12T01:52:43.937Z,33.60
2023-02-12T01:55:11.506Z,33.70
2023-02-12T01:57:42.631Z,33.60
2023-02-12T02:00:14.721Z,33.60
2023-02-12T02:02:44.829Z,33.70
2023-02-12T02:05:15.211Z,33.60
2023-02-12T02:07:43.817Z,33.60
2023-02-12T02:10:10.817Z,33.60
2023-02-12T02:12:57.131Z,33.60
2023-02-12T02:15:26.353Z,33.60
2023-02-12T02:17:58.034Z,33.60
2023-02-12T02:20:51.889Z,33.70
2023-02-12T02:23:30.794Z,33.70
2023-02-12T02:26:21.818Z,33.70
2023-02-12T02:29:03.712Z,33.70
2023-02-12T02:31:46.917Z,33.70
2023-02-12T02:34:48.613Z,33.70
2023-02-12T02:37:32.678Z,33.80
2023-02-12T02:40:11.734Z,33.80
2023-02-12T02:42:45.556Z,33.80
2023-02-12T02:45:21.045Z,33.70
2023-02-12T02:48:03.850Z,33.70
2023-02-12T02:50:34.627Z,33.80
2023-02-12T02:53:12.407Z,33.70
2023-02-12T02:55:45.217Z,33.70
2023-02-12T02:58:18.528Z,33.70
2023-02-12T03:01:07.276Z,33.80
2023-02-12T03:03:45.826Z,33.80
2023-02-12T03:06:45.048Z,33.80
2023-02-12T03:09:21.409Z,33.80
2023-02-12T03:11:48.506Z,33.70
2023-02-12T03:14:30.889Z,33.80
2023-02-12T03:17:06.647Z,33.80
2023-02-12T03:19:37.499Z,33.70
2023-02-12T03:22:12.258Z,33.80
2023-02-12T03:24:47.438Z,33.80
2023-02-12T03:27:32.010Z,33.80
2023-02-12T03:29:59.082Z,33.80
2023-02-12T03:32:38.008Z,33.80
2023-02-12T03:35:32.801Z,33.90
2023-02-12T03:38:38.938Z,33.80
2023-02-12T03:41:11.873Z,33.80
2023-02-12T03:43:54.222Z,33.80
2023-02-12T03:46:42.898Z,33.80
2023-02-12T03:49:24.562Z,33.80
2023-02-12T03:51:51.134Z,33.80
2023-02-12T03:54:20.172Z,33.80
2023-02-12T03:56:59.485Z,33.80
2023-02-12T03:59:26.637Z,33.80
2023-02-12T04:01:55.876Z,33.90
2023-02-12T04:04:24.019Z,33.80
2023-02-12T04:06:51.473Z,33.80
2023-02-12T04:09:18.528Z,33.80
2023-02-12T04:12:22.747Z,33.90
2023-02-12T04:15:24.726Z,33.80
2023-02-12T04:18:20.462Z,33.80
2023-02-12T04:21:05.806Z,33.80
2023-02-12T04:23:44.109Z,33.90
2023-02-12T04:26:16.885Z,33.80
2023-02-12T04:29:00.722Z,33.90
2023-02-12T04:31:36.296Z,33.90
2023-02-12T04:34:28.081Z,33.90
2023-02-12T04:37:04.318Z,33.90
2023-02-12T04:39:34.452Z,33.90
2023-02-12T04:42:02.011Z,33.90
2023-02-12T04:44:34.346Z,33.90
2023-02-12T04:47:01.135Z,33.90
2023-02-12T04:49:28.220Z,34.00
2023-02-12T04:51:54.974Z,34.00
2023-02-12T04:54:22.877Z,33.90
2023-02-12T04:56:50.068Z,34.00
2023-02-12T04:59:16.771Z,33.90
2023-02-12T05:01:45.415Z,33.90
2023-02-12T05:04:17.127Z,33.90
2023-02-12T05:06:45.154Z,33.90
2023-02-12T05:09:18.087Z,33.80
2023-02-12T05:11:45.207Z,33.90
2023-02-12T05:14:12.074Z,33.90
2023-02-12T05:16:38.723Z,33.80
2023-02-12T05:19:05.545Z,33.80
2023-02-12T05:21:32.261Z,34.50
2023-02-12T05:23:58.806Z,33.80
2023-02-12T05:26:25.450Z,33.90
2023-02-12T05:28:52.052Z,33.80
2023-02-12T05:31:21.509Z,33.90
2023-02-12T05:33:49.362Z,33.90
2023-02-12T05:36:19.231Z,33.90
2023-02-12T05:38:46.366Z,33.90
2023-02-12T05:41:19.464Z,33.90
2023-02-12T05:43:49.554Z,33.80
2023-02-12T05:46:17.997Z,33.80
2023-02-12T05:48:44.636Z,33.80
2023-02-12T05:51:13.168Z,33.90
2023-02-12T05:53:40.952Z,33.90
2023-02-12T05:56:14.154Z,33.90
2023-02-12T05:58:43.527Z,33.90
2023-02-12T06:01:19.820Z,33.90
2023-02-12T06:03:46.536Z,33.90
2023-02-12T06:06:13.725Z,33.90
2023-02-12T06:08:40.719Z,34.00
2023-02-12T06:11:10.610Z,33.90
2023-02-12T06:13:37.190Z,33.90
2023-02-12T06:16:04.460Z,33.90
2023-02-12T06:18:31.355Z,33.90
2023-02-12T06:20:58.041Z,33.90
2023-02-12T06:23:25.198Z,33.90
2023-02-12T06:25:57.006Z,33.90
2023-02-12T06:28:24.093Z,34.70
2023-02-12T06:30:50.812Z,33.90
2023-02-12T06:33:17.442Z,33.90
2023-02-12T06:35:44.026Z,33.90
2023-02-12T06:38:10.718Z,34.00
2023-02-12T06:40:37.281Z,34.00
2023-02-12T06:43:03.877Z,34.00
2023-02-12T06:45:30.518Z,34.00
2023-02-12T06:47:57.099Z,34.00
2023-02-12T06:50:23.976Z,34.00
2023-02-12T06:52:50.618Z,34.00
2023-02-12T06:55:17.429Z,34.00
2023-02-12T06:57:44.047Z,34.00
2023-02-12T07:00:11.504Z,34.00
2023-02-12T07:02:39.130Z,34.00
2023-02-12T07:05:05.956Z,34.00
2023-02-12T07:07:32.941Z,34.00
2023-02-12T07:09:59.608Z,34.00
2023-02-12T07:12:26.139Z,34.00
2023-02-12T07:14:52.736Z,34.10
2023-02-12T07:17:19.307Z,34.00
2023-02-12T07:19:45.854Z,34.00
2023-02-12T07:22:12.422Z,34.10
2023-02-12T07:24:39.183Z,34.10
2023-02-12T07:27:05.759Z,34.10
2023-02-12T07:29:32.432Z,34.10
2023-02-12T07:31:59.186Z,34.20
2023-02-12T07:34:25.801Z,34.10
2023-02-12T07:36:52.381Z,34.20
2023-02-12T07:39:18.922Z,34.20
2023-02-12T07:41:45.514Z,34.20
2023-02-12T07:44:12.963Z,34.20
2023-02-12T07:46:41.047Z,34.20
2023-02-12T07:49:11.422Z,34.20
2023-02-12T07:51:38.203Z,34.10
2023-02-12T07:54:05.710Z,34.30
2023-02-12T07:56:35.331Z,34.30
2023-02-12T07:59:05.095Z,34.20
2023-02-12T08:01:45.219Z,34.30
2023-02-12T08:04:14.357Z,34.30
2023-02-12T08:06:43.609Z,34.20
2023-02-12T08:09:12.588Z,34.30
2023-02-12T08:11:40.891Z,34.20
2023-02-12T08:14:10.562Z,34.20
2023-02-12T08:16:38.803Z,34.20
2023-02-12T08:19:16.905Z,34.20
2023-02-12T08:21:47.127Z,34.20
2023-02-12T08:24:13.867Z,34.20
2023-02-12T08:26:40.585Z,34.20
2023-02-12T08:29:13.575Z,34.10
2023-02-12T08:31:43.433Z,34.10
2023-02-12T08:34:19.970Z,34.10
2023-02-12T08:36:48.221Z,34.20
2023-02-12T08:39:15.350Z,34.20
2023-02-12T08:41:42.348Z,34.20
2023-02-12T08:44:09.383Z,34.20
2023-02-12T08:46:38.417Z,34.20
2023-02-12T08:49:09.329Z,34.20
2023-02-12T08:51:37.862Z,34.30
2023-02-12T08:54:06.213Z,34.30
2023-02-12T08:56:34.417Z,34.30
2023-02-12T08:59:03.925Z,34.30
2023-02-12T09:01:33.516Z,34.40
2023-02-12T09:04:01.760Z,34.30
2023-02-12T09:06:28.500Z,34.40
2023-02-12T09:08:55.711Z,34.40
2023-02-12T09:11:30.418Z,34.40
2023-02-12T09:14:02.801Z,34.40
2023-02-12T09:16:31.443Z,34.50
2023-02-12T09:18:58.315Z,34.50
2023-02-12T09:21:25.315Z,34.50
2023-02-12T09:23:53.013Z,34.60
2023-02-12T09:26:22.849Z,34.60
2023-02-12T09:28:50.307Z,34.40
2023-02-12T09:31:22.957Z,34.40
2023-02-12T09:33:53.368Z,34.50
2023-02-12T09:36:21.574Z,34.50
2023-02-12T09:38:49.227Z,34.50
2023-02-12T09:41:54.780Z,34.40
2023-02-12T09:44:59.147Z,34.40
2023-02-12T09:47:59.312Z,34.30
2023-02-12T09:50:41.075Z,34.30
2023-02-12T09:53:19.281Z,34.30
2023-02-12T09:55:46.232Z,34.30
2023-02-12T09:58:28.502Z,34.30
2023-02-12T10:00:55.205Z,34.40
2023-02-12T10:03:22.212Z,34.20
2023-02-12T10:06:03.999Z,34.30
2023-02-12T10:08:42.600Z,34.20
2023-02-12T10:11:34.233Z,34.20
2023-02-12T10:14:39.271Z,34.20
2023-02-12T10:17:42.814Z,34.20
2023-02-12T10:20:31.159Z,34.10
2023-02-12T10:23:06.474Z,34.10
2023-02-12T10:25:54.184Z,34.10
2023-02-12T10:28:42.449Z,34.10
2023-02-12T10:31:19.483Z,34.10
2023-02-12T10:33:49.038Z,34.10
2023-02-12T10:36:37.626Z,34.10
2023-02-12T10:39:21.601Z,34.10
2023-02-12T10:42:16.210Z,34.10
2023-02-12T10:44:42.853Z,34.20
2023-02-12T10:47:18.475Z,34.20
2023-02-12T10:49:45.209Z,34.20
2023-02-12T10:52:36.264Z,34.20
2023-02-12T10:55:03.432Z,34.20
2023-02-12T10:57:31.316Z,34.20
2023-02-12T11:00:22.353Z,34.30
2023-02-12T11:03:13.347Z,34.20
2023-02-12T11:05:43.088Z,34.20
2023-02-12T11:08:36.075Z,34.20
2023-02-12T11:11:06.190Z,34.90
2023-02-12T11:13:32.836Z,34.20
2023-02-12T11:16:01.010Z,34.20
2023-02-12T11:18:33.013Z,34.20
2023-02-12T11:21:02.694Z,34.20
2023-02-12T11:23:33.870Z,34.30
2023-02-12T11:26:04.553Z,34.20
2023-02-12T11:28:34.311Z,34.20
2023-02-12T11:31:31.514Z,34.20
2023-02-12T11:34:19.609Z,34.10
2023-02-12T11:36:49.388Z,34.10
2023-02-12T11:39:38.087Z,34.10
2023-02-12T11:42:17.182Z,34.10
2023-02-12T11:44:50.786Z,34.10
2023-02-12T11:47:22.109Z,34.10
2023-02-12T11:50:27.934Z,34.00
2023-02-12T11:53:00.382Z,34.10
2023-02-12T11:55:33.298Z,34.10
2023-02-12T11:58:22.059Z,34.10
2023-02-12T12:01:20.591Z,34.20
2023-02-12T12:04:11.783Z,34.20
2023-02-12T12:06:43.846Z,34.30
2023-02-12T12:09:35.735Z,34.30
2023-02-12T12:12:11.441Z,34.30
2023-02-12T12:15:08.626Z,34.30
2023-02-12T12:18:07.433Z,34.30
2023-02-12T12:20:55.030Z,34.30
2023-02-12T12:23:34.690Z,34.30
2023-02-12T12:26:35.096Z,34.30
2023-02-12T12:29:10.395Z,34.40
2023-02-12T12:31:50.598Z,34.40
2023-02-12T12:34:23.569Z,34.40
2023-02-12T12:37:24.213Z,34.50
2023-02-12T12:39:56.584Z,34.60
2023-02-12T12:42:41.710Z,34.50
2023-02-12T12:45:30.035Z,34.60
2023-02-12T12:48:14.821Z,34.60
2023-02-12T12:51:02.427Z,34.60
2023-02-12T12:53:55.713Z,34.60
2023-02-12T12:57:08.610Z,34.70
2023-02-12T12:59:45.686Z,34.70
2023-02-12T13:02:34.075Z,34.70
2023-02-12T13:05:33.170Z,34.70
2023-02-12T13:08:28.897Z,34.80
2023-02-12T13:11:32.237Z,34.90
2023-02-12T13:14:14.781Z,34.70
2023-02-12T13:16:54.093Z,34.70
2023-02-12T13:19:39.810Z,34.70
2023-02-12T13:22:28.161Z,34.70
2023-02-12T13:25:20.696Z,34.70
2023-02-12T13:27:48.978Z,34.70
2023-02-12T13:30:31.095Z,34.70
2023-02-12T13:33:25.612Z,34.70
2023-02-12T13:35:59.274Z,34.80
2023-02-12T13:38:32.974Z,34.70
2023-02-12T13:41:04.580Z,35.50
2023-02-12T13:43:43.311Z,34.70
2023-02-12T13:46:38.995Z,34.80
2023-02-12T13:49:25.163Z,34.70
2023-02-12T13:52:14.744Z,34.70
2023-02-12T13:55:05.490Z,34.70
2023-02-12T13:57:32.061Z,34.70
2023-02-12T13:59:59.888Z,34.60
2023-02-12T14:02:38.306Z,34.70
2023-02-12T14:05:19.289Z,34.60
2023-02-12T14:07:52.785Z,34.60
2023-02-12T14:10:23.995Z,34.60
2023-02-12T14:12:51.300Z,34.60
2023-02-12T14:15:29.660Z,35.40
2023-02-12T14:18:21.800Z,34.60
2023-02-12T14:20:48.560Z,34.60
2023-02-12T14:23:25.113Z,34.60
2023-02-12T14:25:59.157Z,34.60
2023-02-12T14:28:40.887Z,34.60
2023-02-12T14:31:36.110Z,34.60
2023-02-12T14:34:05.483Z,34.60
2023-02-12T14:36:32.137Z,34.60
2023-02-12T14:39:25.062Z,34.60
2023-02-12T14:42:17.595Z,34.50
2023-02-12T14:44:44.416Z,34.50
2023-02-12T14:47:34.226Z,34.50
2023-02-12T14:50:23.363Z,34.60
2023-02-12T14:53:07.329Z,34.60
2023-02-12T14:55:35.382Z,34.50
2023-02-12T14:58:16.471Z,34.50
2023-02-12T15:00:47.217Z,34.60
2023-02-12T15:03:13.788Z,34.50
2023-02-12T15:05:49.019Z,34.50
2023-02-12T15:08:28.170Z,34.60
2023-02-12T15:11:32.398Z,34.60
2023-02-12T15:14:14.915Z,34.50
2023-02-12T15:16:45.730Z,34.50
2023-02-12T15:19:39.492Z,34.50
2023-02-12T15:22:25.459Z,34.50
2023-02-12T15:24:52.550Z,34.50
2023-02-12T15:27:20.538Z,34.50
2023-02-12T15:29:50.571Z,34.50
2023-02-12T15:32:29.479Z,34.50
2023-02-12T15:34:56.802Z,34.60
2023-02-12T15:37:27.119Z,34.50
2023-02-12T15:40:00.216Z,34.60
2023-02-12T15:42:37.669Z,34.50
2023-02-12T15:45:11.357Z,34.60
2023-02-12T15:47:37.924Z,34.50
2023-02-12T15:50:04.934Z,34.60
2023-02-12T15:52:35.893Z,34.60
2023-02-12T15:55:06.558Z,34.50
2023-02-12T15:57:33.496Z,34.70
2023-02-12T16:00:28.701Z,34.50
2023-02-12T16:02:55.469Z,34.50
2023-02-12T16:05:22.978Z,34.50
2023-02-12T16:07:50.220Z,34.60
2023-02-12T16:10:19.036Z,34.50
2023-02-12T16:12:47.237Z,34.50
2023-02-12T16:15:32.312Z,34.50
2023-02-12T16:18:03.804Z,34.50
2023-02-12T16:20:31.655Z,34.50
2023-02-12T16:22:59.588Z,34.50
2023-02-12T16:25:30.120Z,34.60
2023-02-12T16:28:22.189Z,34.50
2023-02-12T16:30:49.342Z,34.50
2023-02-12T16:33:45.400Z,34.50
2023-02-12T16:36:23.958Z,34.50
2023-02-12T16:38:53.285Z,34.50
2023-02-12T16:41:19.896Z,34.50
2023-02-12T16:43:53.846Z,34.50
2023-02-12T16:46:21.224Z,34.50
2023-02-12T16:48:52.541Z,34.90
2023-02-12T16:51:34.402Z,34.60
2023-02-12T16:54:03.308Z,34.50
2023-02-12T16:56:34.408Z,34.50
2023-02-12T16:59:01.946Z,34.60
2023-02-12T17:01:34.623Z,34.50
2023-02-12T17:04:05.406Z,34.50
2023-02-12T17:06:32.923Z,34.50
2023-02-12T17:09:00.094Z,34.40
2023-02-12T17:11:28.286Z,34.50
2023-02-12T17:13:55.894Z,34.50
2023-02-12T17:16:31.771Z,34.40
2023-02-12T17:18:59.872Z,34.50
2023-02-12T17:21:38.672Z,34.50
2023-02-12T17:24:25.870Z,34.40
2023-02-12T17:26:53.797Z,34.40
2023-02-12T17:29:22.439Z,34.40
2023-02-12T17:31:49.495Z,34.50
2023-02-12T17:34:16.669Z,34.50
2023-02-12T17:36:43.444Z,34.50
2023-02-12T17:39:13.291Z,34.50
2023-02-12T17:41:40.790Z,34.50
2023-02-12T17:44:08.201Z,34.50
2023-02-12T17:46:34.881Z,34.50
2023-02-12T17:49:01.670Z,34.50
2023-02-12T17:51:28.549Z,34.50
2023-02-12T17:53:55.130Z,34.50
2023-02-12T17:56:25.759Z,34.50
2023-02-12T17:58:52.785Z,34.60
2023-02-12T18:01:21.635Z,34.50
2023-02-12T18:03:48.338Z,34.50
2023-02-12T18:06:22.615Z,34.50
2023-02-12T18:08:49.220Z,34.40
2023-02-12T18:11:15.894Z,34.40
2023-02-12T18:13:42.460Z,34.50
2023-02-12T18:16:09.998Z,34.40
2023-02-12T18:18:36.997Z,34.40
2023-02-12T18:21:09.295Z,34.50
2023-02-12T18:23:36.342Z,34.40
2023-02-12T18:26:14.195Z,34.40
2023-02-12T18:28:40.891Z,34.40
2023-02-12T18:31:08.226Z,34.50
2023-02-12T18:33:35.906Z,34.40
2023-02-12T18:36:06.016Z,34.40
2023-02-12T18:38:34.046Z,34.40
2023-02-12T18:41:04.845Z,34.50
2023-02-12T18:43:33.905Z,34.40
2023-02-12T18:46:00.486Z,34.40
2023-02-12T18:48:27.090Z,34.40
2023-02-12T18:50:55.322Z,34.50
2023-02-12T18:53:22.116Z,34.40
2023-02-12T18:55:48.688Z,34.40
2023-02-12T18:58:15.244Z,34.40
2023-02-12T19:00:41.854Z,34.40
2023-02-12T19:03:08.402Z,34.40
2023-02-12T19:05:35.049Z,34.40
2023-02-12T19:08:01.992Z,34.40
2023-02-12T19:10:28.613Z,34.50
2023-02-12T19:12:56.275Z,34.40
2023-02-12T19:15:23.397Z,34.40
2023-02-12T19:17:50.622Z,34.40
2023-02-12T19:20:17.322Z,34.40
2023-02-12T19:22:45.763Z,34.40
2023-02-12T19:25:12.983Z,34.50
2023-02-12T19:27:39.741Z,34.50
2023-02-12T19:30:07.292Z,34.50
2023-02-12T19:32:34.038Z,34.50
2023-02-12T19:35:00.711Z,34.50
2023-02-12T19:37:27.288Z,34.50
2023-02-12T19:39:53.904Z,34.50
2023-02-12T19:42:20.547Z,34.50
2023-02-12T19:44:47.282Z,34.50
2023-02-12T19:47:14.125Z,34.60
2023-02-12T19:49:41.356Z,34.60
2023-02-12T19:52:08.710Z,34.50
2023-02-12T19:54:36.328Z,34.60
2023-02-12T19:57:08.503Z,34.60
2023-02-12T19:59:36.053Z,34.60
2023-02-12T20:02:03.449Z,34.70
2023-02-12T20:04:31.703Z,34.70
2023-02-12T20:06:58.317Z,34.70
2023-02-12T20:09:25.501Z,34.70
2023-02-12T20:11:52.443Z,34.70
2023-02-12T20:14:20.740Z,34.70
2023-02-12T20:16:47.868Z,34.70
2023-02-12T20:19:19.851Z,34.70
2023-02-12T20:21:53.087Z,34.70
2023-02-12T20:24:20.812Z,34.80
2023-02-12T20:26:47.380Z,34.70
2023-02-12T20:29:13.963Z,34.70
2023-02-12T20:31:40.751Z,34.80
2023-02-12T20:34:11.326Z,34.80
2023-02-12T20:36:40.375Z,34.80
2023-02-12T20:39:09.303Z,34.80
2023-02-12T20:41:37.068Z,34.80
2023-02-12T20:44:05.419Z,34.80
2023-02-12T20:46:32.026Z,34.80
2023-02-12T20:48:58.756Z,34.80
2023-02-12T20:51:27.330Z,34.70
2023-02-12T20:53:55.295Z,34.70
2023-02-12T20:56:25.926Z,34.90
2023-02-12T20:58:53.459Z,34.80
2023-02-12T21:01:23.072Z,34.90
2023-02-12T21:03:52.045Z,34.90
2023-02-12T21:06:19.570Z,34.80
2023-02-12T21:08:46.467Z,34.90
2023-02-12T21:11:15.949Z,34.90
2023-02-12T21:13:50.426Z,34.90
2023-02-12T21:16:32.291Z,34.90
2023-02-12T21:18:59.265Z,34.90
2023-02-12T21:21:29.670Z,35.00
2023-02-12T21:23:57.776Z,34.90
2023-02-12T21:26:26.973Z,34.80
2023-02-12T21:28:55.599Z,34.90
2023-02-12T21:31:23.889Z,34.90
2023-02-12T21:33:52.221Z,34.90
2023-02-12T21:36:21.691Z,35.00
2023-02-12T21:38:49.445Z,34.90
2023-02-12T21:41:18.995Z,34.90
2023-02-12T21:43:48.702Z,35.00
2023-02-12T21:46:16.371Z,35.00
2023-02-12T21:48:44.192Z,35.00
2023-02-12T21:51:21.739Z,35.00
2023-02-12T21:53:50.284Z,35.00
2023-02-12T21:56:17.678Z,35.00
2023-02-12T21:58:45.117Z,35.00
2023-02-12T22:01:14.320Z,35.00
2023-02-12T22:03:41.258Z,35.00
2023-02-12T22:06:09.040Z,35.00
2023-02-12T22:08:36.061Z,35.00
2023-02-12T22:11:04.526Z,35.00
2023-02-12T22:13:31.541Z,35.00
2023-02-12T22:16:06.919Z,35.00
2023-02-12T22:18:33.501Z,35.00
2023-02-12T22:21:01.566Z,35.00
2023-02-12T22:23:28.182Z,35.00
2023-02-12T22:25:54.772Z,34.90
2023-02-12T22:28:21.552Z,35.00
2023-02-12T22:30:48.158Z,34.90
2023-02-12T22:33:14.880Z,34.90
2023-02-12T22:35:41.416Z,35.00
2023-02-12T22:38:07.989Z,34.90
2023-02-12T22:40:34.533Z,34.90
2023-02-12T22:43:01.086Z,34.90
2023-02-12T22:45:27.682Z,35.00
2023-02-12T22:47:54.288Z,34.90
2023-02-12T22:50:20.924Z,35.00
2023-02-12T22:52:47.489Z,34.90
2023-02-12T22:55:14.204Z,35.00
2023-02-12T22:57:40.785Z,35.00
2023-02-12T23:00:08.396Z,34.90
2023-02-12T23:02:34.949Z,34.90
2023-02-12T23:05:01.509Z,34.90
2023-02-12T23:07:28.066Z,34.90
2023-02-12T23:09:55.071Z,34.90
2023-02-12T23:12:21.618Z,34.90
2023-02-12T23:14:48.347Z,34.90
2023-02-12T23:17:14.936Z,34.80
2023-02-12T23:19:41.513Z,34.80
2023-02-12T23:22:08.530Z,34.80
2023-02-12T23:24:35.112Z,34.80
2023-02-12T23:27:01.717Z,34.80
2023-02-12T23:29:28.310Z,34.80
2023-02-12T23:31:54.891Z,34.80
2023-02-12T23:34:21.481Z,34.80
2023-02-12T23:36:48.107Z,34.80
2023-02-12T23:39:14.782Z,34.80
2023-02-12T23:41:41.386Z,34.80
2023-02-12T23:44:09.660Z,34.80
2023-02-12T23:46:36.458Z,34.80
2023-02-12T23:49:03.086Z,34.80
2023-02-12T23:51:30.624Z,34.80
2023-02-12T23:53:57.310Z,34.80
2023-02-12T23:56:24.297Z,34.80
2023-02-12T23:58:51.032Z,34.80
